ブエノスアイレス/エセイサ の空港の天気 - METARとTAF

エセイサ国際空港 ( SAEZ / EZE ) - アルゼンチン ブエノスアイレス州、Ezeiza
飛行場実況気象(Metar)
観測時間08/16 18:00 ART (08/16 21:00 UTC)
風向・風速南南西 2m/s
視程10km以上
天気現象
なし
気温14℃
湿度38%
気圧1020hPa
METARSAEZ 162100Z 21004KT CAVOK 14/00 Q1020
過去の天気等 Google飛行場航空写真 Wunderground天気予報

過去48時間のMETAR

飛行場予報(TAF)
発表時間: 8/16 14:00 ART (8/16 17:00 UTC)
予報対象時間: 16日15時 ART ~ 17日15時 ART
風向・風速西北西 3m/s
視程10km以上
なし
16日22時 ART ~ 17日1時 ART に徐々に
風向・風速北 3m/s
17日9時 ART ~ 17日12時 ART に徐々に
風向・風速北西 8m/s
TAF SAEZ 161700Z 1618/1718 29005KT CAVOK TX20/1718Z TN08/1710Z
BECMG 1701/1704 36005KT
BECMG 1712/1715 32015KT